Time;durP1;ratioP1;P1;durP2;ratioP2;P2;SDS_P1;SDS_P2;PMS_P1;PMS_P2;Temp;Humidity;BMP_temperature;BMP_pressure;BME280_temperature;BME280_humidity;BME280_pressure;Samples;Min_cycle;Max_cycle;Signal;HPM_P1;HPM_P2
2020/12/10 00:02:17;;;;;;;;;;;3.40;79.60;;;;;;5035543;28;20007;-83
2020/12/10 00:04:43;;;;;;;;;;;3.40;79.50;;;;;;5036317;28;19923;-83
2020/12/10 00:07:08;;;;;;;;;;;3.30;79.50;;;;;;5026170;28;20282;-83
2020/12/10 00:09:34;;;;;;;;;;;3.30;79.50;;;;;;5029209;28;19962;-83
2020/12/10 00:12:03;;;;;;;;;;;3.30;79.50;;;;;;5071425;28;19931;-83
2020/12/10 00:14:28;;;;;;;;;;;3.30;79.50;;;;;;5072416;28;19916;-83
2020/12/10 00:16:54;;;;;;;;;;;3.30;79.50;;;;;;5062820;28;19966;-83
2020/12/10 00:19:19;;;;;;;;;;;3.30;79.50;;;;;;5037624;28;19916;-83
2020/12/10 00:21:45;;;;;;;;;;;3.30;79.60;;;;;;5054693;28;19951;-83
2020/12/10 00:24:10;;;;;;;;;;;3.20;79.50;;;;;;5057826;28;19920;-83
2020/12/10 00:26:36;;;;;;;;;;;3.20;79.40;;;;;;5061177;28;19919;-83
2020/12/10 00:29:01;;;;;;;;;;;3.20;79.40;;;;;;5047540;28;19919;-83
2020/12/10 00:31:27;;;;;;;;;;;3.20;79.40;;;;;;5026737;28;19913;-83
2020/12/10 00:33:52;;;;;;;;;;;3.20;79.40;;;;;;5056155;28;19916;-83
2020/12/10 00:36:18;;;;;;;;;;;3.20;79.50;;;;;;5037670;28;20297;-83
2020/12/10 00:38:43;;;;;;;;;;;3.20;79.50;;;;;;5037754;28;20278;-83
2020/12/10 00:41:10;;;;;;;;;;;3.20;79.50;;;;;;5071450;28;19917;-83
2020/12/10 00:43:35;;;;;;;;;;;3.20;79.50;;;;;;5040541;28;20370;-83
2020/12/10 00:46:01;;;;;;;;;;;3.10;79.40;;;;;;5039181;28;19923;-83
2020/12/10 00:48:27;;;;;;;;;;;3.10;79.40;;;;;;5042757;28;19923;-83
2020/12/10 00:50:52;;;;;;;;;;;3.10;79.40;;;;;;5072487;28;19920;-83
2020/12/10 00:53:18;;;;;;;;;;;3.10;79.40;;;;;;5040854;28;19920;-83
2020/12/10 00:55:43;;;;;;;;;;;3.10;79.40;;;;;;5030519;28;19917;-84
2020/12/10 00:58:09;;;;;;;;;;;3.10;79.40;;;;;;5056904;28;19931;-84
2020/12/10 01:00:34;;;;;;;;;;;3.10;79.40;;;;;;5033307;28;19956;-84
2020/12/10 01:03:00;;;;;;;;;;;3.10;79.40;;;;;;5057413;28;19917;-84
2020/12/10 01:05:25;;;;;;;;;;;3.00;79.30;;;;;;5020574;28;19921;-84
2020/12/10 01:07:51;;;;;;;;;;;3.10;79.40;;;;;;5056314;28;20321;-84
2020/12/10 01:10:17;;;;;;;;;;;3.10;79.40;;;;;;5020507;28;19936;-84
2020/12/10 01:12:42;;;;;;;;;;;3.00;79.30;;;;;;5055911;28;19913;-84
2020/12/10 01:15:08;;;;;;;;;;;3.00;79.30;;;;;;5037207;28;20034;-84
2020/12/10 01:17:33;;;;;;;;;;;3.00;79.30;;;;;;5058121;28;19916;-84
2020/12/10 01:19:59;;;;;;;;;;;3.00;79.30;;;;;;5058900;28;19917;-84
2020/12/10 01:22:24;;;;;;;;;;;3.00;79.30;;;;;;5032136;28;19927;-84
2020/12/10 01:24:49;;;;;;;;;;;3.00;79.30;;;;;;5052203;28;20145;-82
2020/12/10 01:27:19;;;;;;;;;;;3.00;79.30;;;;;;5037203;28;20388;-82
2020/12/10 01:29:45;;;;;;;;;;;3.00;79.30;;;;;;5052536;28;19912;-82
2020/12/10 01:32:10;;;;;;;;;;;2.90;79.30;;;;;;5074361;28;19916;-82
2020/12/10 01:34:36;;;;;;;;;;;2.90;79.30;;;;;;5074572;28;19920;-81
2020/12/10 01:37:01;;;;;;;;;;;2.90;79.30;;;;;;5056895;28;19963;-82
2020/12/10 01:39:27;;;;;;;;;;;2.90;79.90;;;;;;5043504;28;19921;-84
2020/12/10 01:41:52;;;;;;;;;;;2.90;79.30;;;;;;5036674;28;19955;-84
2020/12/10 01:44:18;;;;;;;;;;;2.90;79.30;;;;;;5036663;28;19920;-84
2020/12/10 01:46:43;;;;;;;;;;;2.90;79.30;;;;;;5036419;28;20420;-84
2020/12/10 01:49:09;;;;;;;;;;;2.90;79.30;;;;;;5053325;28;19916;-84
2020/12/10 01:51:35;;;;;;;;;;;2.90;79.30;;;;;;5074126;28;20337;-84
2020/12/10 01:54:01;;;;;;;;;;;2.90;79.20;;;;;;5056468;28;20365;-85
2020/12/10 01:56:27;;;;;;;;;;;2.80;79.10;;;;;;5037859;28;19965;-84
2020/12/10 01:58:53;;;;;;;;;;;2.80;79.10;;;;;;5027435;28;20319;-85
2020/12/10 02:01:18;;;;;;;;;;;2.80;79.10;;;;;;5038984;28;19923;-84
2020/12/10 02:03:44;;;;;;;;;;;2.80;79.10;;;;;;5073749;28;19938;-84
2020/12/10 02:06:09;;;;;;;;;;;2.80;79.10;;;;;;5074131;28;19909;-84
2020/12/10 02:08:39;;;;;;;;;;;2.80;79.10;;;;;;5039464;28;19962;-84
2020/12/10 02:11:06;;;;;;;;;;;2.70;79.00;;;;;;5072200;28;19932;-84
2020/12/10 02:13:32;;;;;;;;;;;2.70;79.00;;;;;;5058889;28;20666;-84
2020/12/10 02:15:57;;;;;;;;;;;2.70;79.00;;;;;;5036204;28;19971;-84
2020/12/10 02:18:23;;;;;;;;;;;2.70;79.00;;;;;;5053507;28;19926;-84
2020/12/10 02:20:48;;;;;;;;;;;2.70;79.10;;;;;;5045363;28;20432;-84
2020/12/10 02:23:13;;;;;;;;;;;2.70;79.00;;;;;;5045861;28;19943;-84
2020/12/10 02:25:39;;;;;;;;;;;2.70;79.00;;;;;;5053395;28;20282;-84
2020/12/10 02:28:09;;;;;;;;;;;2.70;79.00;;;;;;5019215;28;20015;-84
2020/12/10 02:30:35;;;;;;;;;;;2.60;78.90;;;;;;5060130;28;19912;-84
2020/12/10 02:33:02;;;;;;;;;;;2.60;78.90;;;;;;5040528;28;20011;-84
2020/12/10 02:35:28;;;;;;;;;;;2.60;79.00;;;;;;5035286;28;19913;-84
2020/12/10 02:37:54;;;;;;;;;;;2.60;78.90;;;;;;5052564;28;19944;-83
2020/12/10 02:40:20;;;;;;;;;;;2.60;78.90;;;;;;5036701;28;19917;-84
2020/12/10 02:42:45;;;;;;;;;;;2.60;78.90;;;;;;5034943;28;19928;-84
2020/12/10 02:45:11;;;;;;;;;;;2.60;78.90;;;;;;5021866;28;20019;-83
2020/12/10 02:47:36;;;;;;;;;;;2.50;78.90;;;;;;5049610;28;19916;-83
2020/12/10 02:50:02;;;;;;;;;;;2.60;78.90;;;;;;5018794;28;19920;-83
2020/12/10 02:52:28;;;;;;;;;;;2.50;78.90;;;;;;5028521;28;19970;-83
2020/12/10 02:54:53;;;;;;;;;;;2.50;78.90;;;;;;5038121;28;19924;-83
2020/12/10 02:57:19;;;;;;;;;;;2.50;78.90;;;;;;5054598;28;20439;-83
2020/12/10 02:59:44;;;;;;;;;;;2.50;78.90;;;;;;5032865;28;19927;-83
2020/12/10 03:02:10;;;;;;;;;;;2.50;78.90;;;;;;5070212;28;19930;-83
2020/12/10 03:04:35;;;;;;;;;;;2.50;78.90;;;;;;5042940;28;19920;-82
2020/12/10 03:07:01;;;;;;;;;;;2.50;78.90;;;;;;5034801;28;20021;-83
2020/12/10 03:09:26;;;;;;;;;;;2.50;78.90;;;;;;5059826;28;19932;-83
2020/12/10 03:11:52;;;;;;;;;;;2.40;78.80;;;;;;5034680;28;19925;-83
2020/12/10 03:14:17;;;;;;;;;;;2.50;78.90;;;;;;5018268;28;19913;-83
2020/12/10 03:16:43;;;;;;;;;;;2.40;78.90;;;;;;5034658;28;20251;-83
2020/12/10 03:19:08;;;;;;;;;;;2.40;78.80;;;;;;5065301;28;19912;-82
2020/12/10 03:21:34;;;;;;;;;;;2.40;78.90;;;;;;5072138;28;19912;-83
2020/12/10 03:23:59;;;;;;;;;;;2.40;78.90;;;;;;5072126;28;19924;-83
2020/12/10 03:26:24;;;;;;;;;;;2.40;78.90;;;;;;5051453;28;19920;-82
2020/12/10 03:28:50;;;;;;;;;;;2.40;78.90;;;;;;5034646;28;20370;-85
2020/12/10 03:31:15;;;;;;;;;;;2.40;78.90;;;;;;5052803;28;19921;-85
2020/12/10 03:33:41;;;;;;;;;;;2.40;78.90;;;;;;5061655;28;19973;-85
2020/12/10 03:36:07;;;;;;;;;;;2.40;78.90;;;;;;5034580;28;20426;-86
2020/12/10 03:38:32;;;;;;;;;;;2.40;78.90;;;;;;5017917;28;19917;-86
2020/12/10 03:40:58;;;;;;;;;;;2.40;78.90;;;;;;5036110;28;20055;-86
2020/12/10 03:43:23;;;;;;;;;;;2.40;78.90;;;;;;5018048;28;20385;-86
2020/12/10 03:45:49;;;;;;;;;;;2.30;78.90;;;;;;5017675;28;19971;-85
2020/12/10 03:48:14;;;;;;;;;;;2.40;78.90;;;;;;5017812;28;19963;-85
2020/12/10 03:50:40;;;;;;;;;;;2.30;78.90;;;;;;5069987;28;20017;-86
2020/12/10 03:53:05;;;;;;;;;;;2.30;78.90;;;;;;5036222;28;19922;-86
2020/12/10 03:55:31;;;;;;;;;;;2.30;78.90;;;;;;5054073;28;20431;-85
2020/12/10 03:57:56;;;;;;;;;;;2.30;78.90;;;;;;5036383;28;20011;-86
2020/12/10 04:00:22;;;;;;;;;;;2.30;78.90;;;;;;5035492;28;20007;-86
2020/12/10 04:02:47;;;;;;;;;;;2.30;78.90;;;;;;5020172;28;20400;-86
2020/12/10 04:05:13;;;;;;;;;;;2.30;78.90;;;;;;5063803;28;19966;-86
2020/12/10 04:07:38;;;;;;;;;;;2.30;78.90;;;;;;5071637;28;20007;-86
2020/12/10 04:10:04;;;;;;;;;;;2.30;78.90;;;;;;5046751;28;19925;-86
2020/12/10 04:12:30;;;;;;;;;;;2.30;78.90;;;;;;5031519;28;20298;-86
2020/12/10 04:14:55;;;;;;;;;;;2.30;78.90;;;;;;5030827;28;19913;-86
2020/12/10 04:17:21;;;;;;;;;;;2.30;78.90;;;;;;5028015;28;19925;-85
2020/12/10 04:19:46;;;;;;;;;;;2.20;78.90;;;;;;5010726;28;20359;-85
2020/12/10 04:22:12;;;;;;;;;;;2.20;78.90;;;;;;5012197;28;19959;-85
2020/12/10 04:24:37;;;;;;;;;;;2.20;78.90;;;;;;4994263;28;20012;-86
2020/12/10 04:27:03;;;;;;;;;;;2.20;78.90;;;;;;5013157;28;19913;-86
2020/12/10 04:29:28;;;;;;;;;;;2.20;79.00;;;;;;5028019;28;19952;-85
2020/12/10 04:31:54;;;;;;;;;;;2.20;79.00;;;;;;5018318;28;20371;-85
2020/12/10 04:34:19;;;;;;;;;;;2.20;78.90;;;;;;5030405;28;19917;-86
2020/12/10 04:36:47;;;;;;;;;;;2.10;78.90;;;;;;5022483;28;19917;-86
2020/12/10 04:39:13;;;;;;;;;;;2.10;78.90;;;;;;5019721;28;19917;-86
2020/12/10 04:41:40;;;;;;;;;;;2.20;79.00;;;;;;5021071;28;19913;-86
2020/12/10 04:44:05;;;;;;;;;;;2.20;79.00;;;;;;5024547;28;19921;-86
2020/12/10 04:46:31;;;;;;;;;;;2.10;78.90;;;;;;5026325;28;20017;-86
2020/12/10 04:48:58;;;;;;;;;;;2.10;78.90;;;;;;5024990;28;20282;-86
2020/12/10 04:51:24;;;;;;;;;;;2.10;78.90;;;;;;5030506;28;20279;-86
2020/12/10 04:53:50;;;;;;;;;;;2.10;78.90;;;;;;5025531;28;19917;-86
2020/12/10 04:56:16;;;;;;;;;;;2.00;78.80;;;;;;5024229;28;19913;-87
2020/12/10 04:58:42;;;;;;;;;;;2.10;78.90;;;;;;5016254;28;19921;-86
2020/12/10 05:01:07;;;;;;;;;;;2.00;78.90;;;;;;5003769;28;19917;-86
2020/12/10 05:03:33;;;;;;;;;;;2.00;78.90;;;;;;5002128;28;19975;-84
2020/12/10 05:06:12;;;;;;;;;;;2.00;78.90;;;;;;5012212;28;20364;-83
2020/12/10 05:08:37;;;;;;;;;;;2.00;78.90;;;;;;5032025;28;19987;-91
2020/12/10 05:11:03;;;;;;;;;;;1.90;78.90;;;;;;5065430;23;20026;-90
2020/12/10 05:13:28;;;;;;;;;;;2.00;79.00;;;;;;5061865;28;20334;-89
2020/12/10 05:15:54;;;;;;;;;;;1.90;78.90;;;;;;5050713;28;19916;-89
2020/12/10 05:18:21;;;;;;;;;;;1.90;78.90;;;;;;5075717;28;19909;-89
2020/12/10 05:20:50;;;;;;;;;;;1.90;78.90;;;;;;5073769;28;19916;-89
2020/12/10 05:23:17;;;;;;;;;;;1.90;78.90;;;;;;5038873;28;20028;-89
2020/12/10 05:25:52;;;;;;;;;;;1.90;78.90;;;;;;5037296;28;20277;-89
2020/12/10 05:28:19;;;;;;;;;;;1.90;78.90;;;;;;5061079;28;19913;-89
2020/12/10 05:30:46;;;;;;;;;;;1.90;78.90;;;;;;5066069;28;19924;-89
2020/12/10 05:33:13;;;;;;;;;;;1.90;79.00;;;;;;5050515;28;20007;-89
2020/12/10 05:35:38;;;;;;;;;;;1.80;78.90;;;;;;5050968;28;19952;-88
2020/12/10 05:38:09;;;;;;;;;;;1.80;78.90;;;;;;5037375;28;19932;-89
2020/12/10 05:40:34;;;;;;;;;;;1.80;78.80;;;;;;5055222;28;19921;-88
2020/12/10 05:43:00;;;;;;;;;;;1.80;78.80;;;;;;5050931;28;19920;-89
2020/12/10 05:45:26;;;;;;;;;;;1.80;78.90;;;;;;5071860;28;19916;-89
2020/12/10 05:47:53;;;;;;;;;;;1.80;78.90;;;;;;5056985;28;19960;-89
2020/12/10 05:50:24;;;;;;;;;;;1.80;78.90;;;;;;5068811;28;19924;-89
2020/12/10 05:52:54;;;;;;;;;;;1.70;78.80;;;;;;5054932;28;19983;-90
2020/12/10 05:55:20;;;;;;;;;;;1.70;78.90;;;;;;5055052;28;19968;-89
2020/12/10 05:57:46;;;;;;;;;;;1.70;78.90;;;;;;5031711;28;20410;-89
2020/12/10 06:00:12;;;;;;;;;;;1.70;78.90;;;;;;5073936;28;19953;-89
2020/12/10 06:02:39;;;;;;;;;;;1.70;78.90;;;;;;5055532;28;19924;-89
2020/12/10 06:05:05;;;;;;;;;;;1.70;78.90;;;;;;5073237;28;19913;-89
2020/12/10 06:07:31;;;;;;;;;;;1.70;78.90;;;;;;5039890;28;19939;-89
2020/12/10 06:09:56;;;;;;;;;;;1.70;78.90;;;;;;5019877;28;20370;-89
2020/12/10 06:12:25;;;;;;;;;;;1.70;78.90;;;;;;5035530;28;19920;-89
2020/12/10 06:14:51;;;;;;;;;;;1.70;78.90;;;;;;5039564;28;20335;-89
2020/12/10 06:17:17;;;;;;;;;;;1.60;78.90;;;;;;5055809;28;20027;-89
2020/12/10 06:19:42;;;;;;;;;;;1.60;78.90;;;;;;5036632;28;20409;-89
2020/12/10 06:22:37;;;;;;;;;;;1.60;78.90;;;;;;5053349;28;20373;-88
2020/12/10 06:25:23;;;;;;;;;;;1.60;78.90;;;;;;5057109;28;19920;-89
2020/12/10 06:27:49;;;;;;;;;;;1.60;78.90;;;;;;5059691;28;20289;-86
2020/12/10 06:30:18;;;;;;;;;;;1.60;78.90;;;;;;5041830;28;20012;-88
2020/12/10 06:32:48;;;;;;;;;;;1.60;78.90;;;;;;5052874;28;19988;-89
2020/12/10 06:35:28;;;;;;;;;;;1.60;78.90;;;;;;5046601;28;20301;-88
2020/12/10 06:37:54;;;;;;;;;;;1.60;78.90;;;;;;5071628;28;19913;-88
2020/12/10 06:40:33;;;;;;;;;;;1.60;78.90;;;;;;5072500;28;19934;-89
2020/12/10 06:43:02;;;;;;;;;;;1.50;78.90;;;;;;5072257;28;20377;-88
2020/12/10 06:45:41;;;;;;;;;;;1.50;78.90;;;;;;5071511;28;19928;-89
2020/12/10 06:48:08;;;;;;;;;;;1.50;78.90;;;;;;5060799;28;19917;-88
2020/12/10 06:50:34;;;;;;;;;;;1.50;78.90;;;;;;5053589;28;20003;-89
2020/12/10 06:53:11;;;;;;;;;;;1.50;78.90;;;;;;5073034;28;19913;-89
2020/12/10 06:55:52;;;;;;;;;;;1.50;78.90;;;;;;5073473;28;20354;-89
2020/12/10 06:58:17;;;;;;;;;;;1.50;78.90;;;;;;5066732;28;20367;-88
2020/12/10 07:00:49;;;;;;;;;;;1.50;78.90;;;;;;5049101;28;19970;-88
2020/12/10 07:03:33;;;;;;;;;;;1.50;79.00;;;;;;5035293;28;19917;-87
2020/12/10 07:06:13;;;;;;;;;;;1.50;79.00;;;;;;5038451;28;19958;-89
2020/12/10 07:08:59;;;;;;;;;;;1.50;79.00;;;;;;5048801;28;19908;-87
2020/12/10 07:11:32;;;;;;;;;;;1.40;79.00;;;;;;5050765;28;19953;-89
2020/12/10 07:13:58;;;;;;;;;;;1.40;79.00;;;;;;5051734;28;19921;-89
2020/12/10 07:16:28;;;;;;;;;;;1.40;79.00;;;;;;5037755;28;19916;-87
2020/12/10 07:18:54;;;;;;;;;;;1.40;79.00;;;;;;5056156;28;19926;-87
2020/12/10 07:21:21;;;;;;;;;;;1.40;79.00;;;;;;5052659;28;20011;-88
2020/12/10 07:23:46;;;;;;;;;;;1.40;79.10;;;;;;5051411;28;19924;-88
2020/12/10 07:26:11;;;;;;;;;;;1.40;79.10;;;;;;5055021;28;19912;-88
2020/12/10 07:28:38;;;;;;;;;;;1.40;79.10;;;;;;5031953;28;20142;-88
2020/12/10 07:31:11;;;;;;;;;;;1.40;79.10;;;;;;5052572;28;20377;-88
2020/12/10 07:33:37;;;;;;;;;;;1.40;79.10;;;;;;5049985;28;19912;-88
2020/12/10 07:36:11;;;;;;;;;;;1.40;79.10;;;;;;5051036;28;20012;-88
2020/12/10 07:38:42;;;;;;;;;;;1.40;79.10;;;;;;5070863;28;19943;-88
2020/12/10 07:41:09;;;;;;;;;;;1.40;79.10;;;;;;5051480;28;19999;-86
2020/12/10 07:43:42;;;;;;;;;;;1.40;79.10;;;;;;5052028;28;19925;-88
2020/12/10 07:46:08;;;;;;;;;;;1.40;79.20;;;;;;5053196;28;19924;-88
2020/12/10 07:48:37;;;;;;;;;;;1.40;79.20;;;;;;5052258;28;19913;-88
2020/12/10 07:51:02;;;;;;;;;;;1.30;79.10;;;;;;5051983;28;19917;-87
2020/12/10 07:53:28;;;;;;;;;;;1.30;79.10;;;;;;5065182;28;19920;-88
2020/12/10 07:55:56;;;;;;;;;;;1.30;79.10;;;;;;5071416;28;20006;-88
2020/12/10 07:58:40;;;;;;;;;;;1.30;79.10;;;;;;5070116;28;20013;-88
2020/12/10 08:01:06;;;;;;;;;;;1.30;79.10;;;;;;5070654;28;19916;-88
2020/12/10 08:03:42;;;;;;;;;;;1.30;79.10;;;;;;5069799;28;19920;-87
2020/12/10 08:06:08;;;;;;;;;;;1.30;79.20;;;;;;5054065;28;19921;-87
2020/12/10 08:08:35;;;;;;;;;;;1.20;79.10;;;;;;5035124;28;19940;-87
2020/12/10 08:11:11;;;;;;;;;;;1.30;79.20;;;;;;5052613;28;19928;-88
2020/12/10 08:13:37;;;;;;;;;;;1.20;79.10;;;;;;5067206;28;19919;-86
2020/12/10 08:16:08;;;;;;;;;;;1.20;79.10;;;;;;5051197;28;19913;-88
2020/12/10 08:18:34;;;;;;;;;;;1.20;79.10;;;;;;5033754;28;19958;-87
2020/12/10 08:21:04;;;;;;;;;;;1.20;79.10;;;;;;5033271;28;20011;-87
2020/12/10 08:23:45;;;;;;;;;;;1.30;79.10;;;;;;5054170;28;19924;-87
2020/12/10 08:26:11;;;;;;;;;;;1.20;79.60;;;;;;5022128;28;19917;-89
2020/12/10 08:28:37;;;;;;;;;;;1.20;79.00;;;;;;5034154;28;19913;-89
2020/12/10 08:31:03;;;;;;;;;;;1.30;79.00;;;;;;5039459;28;19924;-92
2020/12/10 08:33:38;;;;;;;;;;;1.20;78.90;;;;;;5053272;28;19996;-87
2020/12/10 08:36:04;;;;;;;;;;;1.30;79.00;;;;;;5020712;28;19920;-87
2020/12/10 08:38:30;;;;;;;;;;;1.30;78.90;;;;;;5022466;28;19921;-87
2020/12/10 08:40:59;;;;;;;;;;;1.20;78.90;;;;;;5056332;28;19913;-87
2020/12/10 08:43:25;;;;;;;;;;;1.30;78.90;;;;;;5064628;28;19950;-87
2020/12/10 08:45:51;;;;;;;;;;;1.30;79.50;;;;;;5074309;28;19913;-87
2020/12/10 08:48:24;;;;;;;;;;;1.30;78.90;;;;;;5071798;28;19919;-86
2020/12/10 08:50:57;;;;;;;;;;;1.30;78.80;;;;;;5052473;28;19986;-87
2020/12/10 08:53:23;;;;;;;;;;;1.30;78.80;;;;;;5074074;28;19912;-87
2020/12/10 08:55:50;;;;;;;;;;;1.40;78.80;;;;;;5074314;28;19934;-87
2020/12/10 08:58:16;;;;;;;;;;;1.30;78.80;;;;;;5055770;28;19913;-86
2020/12/10 09:00:44;;;;;;;;;;;1.40;78.80;;;;;;5065562;28;19919;-87
2020/12/10 09:03:10;;;;;;;;;;;1.40;78.80;;;;;;5069610;28;20297;-87
2020/12/10 09:05:36;;;;;;;;;;;1.40;78.70;;;;;;5071942;28;19913;-87
2020/12/10 09:08:01;;;;;;;;;;;1.40;78.70;;;;;;5074034;28;19919;-87
2020/12/10 09:12:03;;;;;;;;;;;1.50;78.80;;;;;;5111365;27;20008;-89
2020/12/10 09:14:28;;;;;;;;;;;1.50;78.70;;;;;;5093423;28;19982;-89
2020/12/10 09:16:54;;;;;;;;;;;1.50;78.70;;;;;;5089411;28;19912;-89
2020/12/10 09:19:19;;;;;;;;;;;1.60;78.80;;;;;;5124102;28;20358;-89
2020/12/10 09:21:45;;;;;;;;;;;1.60;78.80;;;;;;5123901;28;19995;-89
2020/12/10 09:24:10;;;;;;;;;;;1.60;78.80;;;;;;5123992;28;19979;-89
2020/12/10 09:26:38;;;;;;;;;;;1.60;78.70;;;;;;5124105;28;19912;-89
2020/12/10 09:29:04;;;;;;;;;;;1.60;78.80;;;;;;5106803;28;20357;-89
2020/12/10 09:31:29;;;;;;;;;;;1.70;78.80;;;;;;5126514;28;19923;-89
2020/12/10 09:33:55;;;;;;;;;;;1.70;78.80;;;;;;5092937;28;19920;-89
2020/12/10 09:36:20;;;;;;;;;;;1.70;78.70;;;;;;5109799;28;19916;-89
2020/12/10 09:38:46;;;;;;;;;;;1.70;78.70;;;;;;5109464;28;20262;-89
2020/12/10 09:41:12;;;;;;;;;;;1.70;78.60;;;;;;5110883;28;19939;-89
2020/12/10 09:43:37;;;;;;;;;;;1.70;78.60;;;;;;5089225;28;19990;-89
2020/12/10 09:46:09;;;;;;;;;;;1.80;78.70;;;;;;5122928;28;20006;-89
2020/12/10 09:48:35;;;;;;;;;;;1.80;78.70;;;;;;5090409;28;19919;-89
2020/12/10 09:51:02;;;;;;;;;;;1.80;78.70;;;;;;5122811;28;19920;-89
2020/12/10 09:53:56;;;;;;;;;;;1.80;78.60;;;;;;5109308;28;20010;-89
2020/12/10 09:58:41;;;;;;;;;;;1.80;78.60;;;;;;5110593;28;19913;-87
2020/12/10 10:01:08;;;;;;;;;;;1.90;78.70;;;;;;5091054;28;19961;-89
2020/12/10 10:03:33;;;;;;;;;;;1.90;78.70;;;;;;5107275;28;19935;-87
2020/12/10 10:05:59;;;;;;;;;;;1.90;78.70;;;;;;5108560;28;20358;-86
2020/12/10 10:08:26;;;;;;;;;;;1.90;78.70;;;;;;5091047;28;19927;-87
2020/12/10 10:10:55;;;;;;;;;;;2.00;78.70;;;;;;5089656;28;20030;-86
2020/12/10 10:13:20;;;;;;;;;;;2.00;78.70;;;;;;5107179;28;19916;-86
2020/12/10 10:15:46;;;;;;;;;;;2.00;78.70;;;;;;5103474;28;20076;-86
2020/12/10 10:18:15;;;;;;;;;;;2.00;78.70;;;;;;5105558;28;19958;-86
2020/12/10 10:20:58;;;;;;;;;;;2.00;78.70;;;;;;5087667;28;19912;-87
2020/12/10 10:23:25;;;;;;;;;;;2.10;78.80;;;;;;5108656;27;19963;-86
2020/12/10 10:25:51;;;;;;;;;;;2.10;78.70;;;;;;5080055;28;19939;-87
2020/12/10 10:28:17;;;;;;;;;;;2.10;78.70;;;;;;5089479;28;20366;-88
2020/12/10 10:30:42;;;;;;;;;;;2.20;78.70;;;;;;5093813;28;19912;-88
2020/12/10 10:33:08;;;;;;;;;;;2.20;78.70;;;;;;5099707;28;20385;-87
2020/12/10 10:35:33;;;;;;;;;;;2.20;78.70;;;;;;5111299;27;19916;-87
2020/12/10 10:37:59;;;;;;;;;;;2.20;78.70;;;;;;5093423;28;19927;-87
2020/12/10 10:40:25;;;;;;;;;;;2.20;78.80;;;;;;5094713;28;20323;-87
2020/12/10 10:43:13;;;;;;;;;;;2.20;78.80;;;;;;5072911;28;20278;-87
2020/12/10 10:45:42;;;;;;;;;;;2.20;78.80;;;;;;5093114;28;20386;-87
2020/12/10 10:48:07;;;;;;;;;;;2.30;78.90;;;;;;5075295;28;19920;-88
2020/12/10 10:50:33;;;;;;;;;;;2.30;78.80;;;;;;5076358;28;19923;-87
2020/12/10 10:52:58;;;;;;;;;;;2.30;78.90;;;;;;5075514;28;19965;-88
2020/12/10 10:55:24;;;;;;;;;;;2.30;79.00;;;;;;5092744;28;19912;-87
2020/12/10 10:57:49;;;;;;;;;;;2.30;79.00;;;;;;5103134;28;19920;-86
2020/12/10 11:00:15;;;;;;;;;;;2.30;79.00;;;;;;5070441;28;19947;-86
2020/12/10 11:02:40;;;;;;;;;;;2.30;79.00;;;;;;5075301;28;19965;-86
2020/12/10 11:05:06;;;;;;;;;;;2.40;79.10;;;;;;5092449;28;19981;-86
2020/12/10 11:07:31;;;;;;;;;;;2.40;79.00;;;;;;5096423;28;20373;-86
2020/12/10 11:09:57;;;;;;;;;;;2.40;79.00;;;;;;5090200;22;19935;-87
2020/12/10 11:12:25;;;;;;;;;;;2.40;79.00;;;;;;5064486;28;20306;-87
2020/12/10 11:14:50;;;;;;;;;;;2.40;79.10;;;;;;5084933;28;19919;-87
2020/12/10 11:17:15;;;;;;;;;;;2.50;79.20;;;;;;5065353;28;20366;-87
2020/12/10 11:19:41;;;;;;;;;;;2.50;79.20;;;;;;5074589;28;20025;-87
2020/12/10 11:22:22;;;;;;;;;;;2.50;79.20;;;;;;5073278;28;19909;-87
2020/12/10 11:24:47;;;;;;;;;;;2.50;79.40;;;;;;5071576;28;19956;-88
2020/12/10 11:27:13;;;;;;;;;;;2.50;79.30;;;;;;5066224;28;20016;-88
2020/12/10 11:29:41;;;;;;;;;;;2.50;79.20;;;;;;5083060;28;19909;-88
2020/12/10 11:32:07;;;;;;;;;;;2.60;79.20;;;;;;5087689;28;19959;-88
2020/12/10 11:34:33;;;;;;;;;;;2.60;79.20;;;;;;5084793;28;20364;-88
2020/12/10 11:36:58;;;;;;;;;;;2.60;79.20;;;;;;5081678;28;19977;-88
2020/12/10 11:39:24;;;;;;;;;;;2.60;79.20;;;;;;5092417;28;19927;-88
2020/12/10 11:41:52;;;;;;;;;;;2.60;79.20;;;;;;5070085;28;20016;-88
2020/12/10 11:44:42;;;;;;;;;;;2.60;79.20;;;;;;5076150;28;19909;-88
2020/12/10 11:47:07;;;;;;;;;;;2.70;79.30;;;;;;5072837;28;20384;-88
2020/12/10 11:49:33;;;;;;;;;;;2.70;79.20;;;;;;5073065;28;19962;-88
2020/12/10 11:52:00;;;;;;;;;;;2.70;79.20;;;;;;5073952;28;19920;-89
2020/12/10 11:54:26;;;;;;;;;;;2.70;79.20;;;;;;5074093;28;19974;-88
2020/12/10 11:56:54;;;;;;;;;;;2.70;79.20;;;;;;5073098;28;19912;-88
2020/12/10 11:59:27;;;;;;;;;;;2.70;79.20;;;;;;5088861;28;19919;-89
2020/12/10 12:01:57;;;;;;;;;;;2.80;79.20;;;;;;5094414;28;19915;-89
2020/12/10 12:04:23;;;;;;;;;;;2.80;79.10;;;;;;5091787;28;19916;-89
2020/12/10 12:06:48;;;;;;;;;;;2.80;79.30;;;;;;5061115;28;19924;-89
2020/12/10 12:09:14;;;;;;;;;;;2.80;79.30;;;;;;5072999;28;19923;-89
2020/12/10 12:11:39;;;;;;;;;;;2.80;79.30;;;;;;5073090;28;19928;-89
2020/12/10 12:14:05;;;;;;;;;;;2.80;79.20;;;;;;5056144;28;19920;-89
2020/12/10 12:16:51;;;;;;;;;;;2.80;79.20;;;;;;5091274;28;20006;-89
2020/12/10 12:19:17;;;;;;;;;;;2.90;79.30;;;;;;5092685;28;20003;-91
2020/12/10 12:22:02;;;;;;;;;;;2.90;79.30;;;;;;5083213;28;19927;-90
2020/12/10 12:24:27;;;;;;;;;;;2.90;79.30;;;;;;5078137;28;19916;-90
2020/12/10 12:26:53;;;;;;;;;;;2.90;79.30;;;;;;5091892;28;19912;-91
2020/12/10 12:29:18;;;;;;;;;;;2.90;79.30;;;;;;5075484;28;19919;-90
2020/12/10 12:31:44;;;;;;;;;;;3.00;79.30;;;;;;5063637;28;20028;-91
2020/12/10 12:34:10;;;;;;;;;;;3.00;79.30;;;;;;5055960;28;19913;-89
2020/12/10 12:36:35;;;;;;;;;;;3.00;79.30;;;;;;5055816;28;19923;-89
2020/12/10 12:39:05;;;;;;;;;;;3.00;79.30;;;;;;5081411;28;19922;-91
2020/12/10 12:41:33;;;;;;;;;;;3.00;79.90;;;;;;5084674;28;20281;-92
2020/12/10 12:43:59;;;;;;;;;;;3.10;79.30;;;;;;5094739;28;19962;-87
2020/12/10 12:46:27;;;;;;;;;;;3.00;79.30;;;;;;5077470;28;19942;-91
2020/12/10 12:49:05;;;;;;;;;;;3.00;79.20;;;;;;5095091;28;20004;-92
2020/12/10 12:51:35;;;;;;;;;;;3.10;79.30;;;;;;5128718;27;19912;-94
2020/12/10 12:54:05;;;;;;;;;;;3.10;79.30;;;;;;5078722;28;19935;-92
2020/12/10 12:56:31;;;;;;;;;;;3.10;79.20;;;;;;5071161;28;20413;-93
2020/12/10 13:17:27;;;;;;;;;;;3.20;79.50;;;;;;5089258;28;19916;-96
2020/12/10 13:20:08;;;;;;;;;;;3.20;79.50;;;;;;5093536;28;19912;-93
2020/12/10 13:22:52;;;;;;;;;;;3.20;79.50;;;;;;5085377;28;19916;-94
2020/12/10 13:25:20;;;;;;;;;;;3.20;79.50;;;;;;5075777;28;19909;-91
2020/12/10 13:28:03;;;;;;;;;;;3.20;79.40;;;;;;5085289;28;19933;-89
2020/12/10 13:34:08;;;;;;;;;;;3.20;79.40;;;;;;5095451;28;20464;-93
2020/12/10 13:36:45;;;;;;;;;;;3.20;79.40;;;;;;5073254;28;20023;-92
2020/12/10 13:39:48;;;;;;;;;;;3.20;79.40;;;;;;5077028;28;20369;-89
2020/12/10 13:42:29;;;;;;;;;;;3.30;79.50;;;;;;5072706;28;19955;-88
2020/12/10 13:44:58;;;;;;;;;;;3.30;79.40;;;;;;5092013;28;19958;-91
2020/12/10 13:47:24;;;;;;;;;;;3.30;79.40;;;;;;5092197;28;20361;-92
2020/12/10 13:49:53;;;;;;;;;;;3.30;79.40;;;;;;5091854;28;19915;-90
2020/12/10 13:52:19;;;;;;;;;;;3.30;79.40;;;;;;5090880;28;20368;-94
2020/12/10 13:55:15;;;;;;;;;;;3.30;79.40;;;;;;5073655;28;19912;-93
2020/12/10 13:57:46;;;;;;;;;;;3.30;79.40;;;;;;5096819;28;19892;-95
2020/12/10 14:03:37;;;;;;;;;;;3.40;79.40;;;;;;5089109;28;19933;-92
2020/12/10 14:06:40;;;;;;;;;;;3.40;79.40;;;;;;5097431;28;20411;-93
2020/12/10 14:09:14;;;;;;;;;;;3.40;79.40;;;;;;5097094;28;19953;-92
2020/12/10 14:11:40;;;;;;;;;;;3.40;79.30;;;;;;5096211;28;19920;-92
2020/12/10 14:14:24;;;;;;;;;;;3.40;79.30;;;;;;5096414;28;19912;-93
2020/12/10 14:16:58;;;;;;;;;;;3.40;79.40;;;;;;5097232;28;19961;-92
2020/12/10 14:55:08;;;;;;;;;;;3.50;79.40;;;;;;5094589;28;19924;-93
2020/12/10 15:03:42;;;;;;;;;;;3.50;79.40;;;;;;5138633;27;19911;-94
2020/12/10 15:09:31;;;;;;;;;;;3.50;79.40;;;;;;5139209;27;19914;-91
2020/12/10 16:03:27;;;;;;;;;;;3.40;79.50;;;;;;5091357;27;19948;-91
2020/12/10 16:05:52;;;;;;;;;;;3.50;79.60;;;;;;5028601;28;19960;-91
2020/12/10 16:08:18;;;;;;;;;;;3.40;79.60;;;;;;5040376;28;19948;-93
2020/12/10 16:10:43;;;;;;;;;;;3.50;79.70;;;;;;5035442;28;20297;-92
2020/12/10 16:13:09;;;;;;;;;;;3.40;79.60;;;;;;5018922;28;19923;-89
2020/12/10 16:15:34;;;;;;;;;;;3.40;79.60;;;;;;5040361;28;20380;-94
2020/12/10 16:18:20;;;;;;;;;;;3.40;79.60;;;;;;5055155;28;20002;-90
2020/12/10 16:20:51;;;;;;;;;;;3.40;79.60;;;;;;5053804;28;19909;-92
2020/12/10 16:23:16;;;;;;;;;;;3.40;79.60;;;;;;5031224;28;19924;-91
2020/12/10 16:25:42;;;;;;;;;;;3.40;79.60;;;;;;5027254;28;19942;-90
2020/12/10 16:28:07;;;;;;;;;;;3.40;79.60;;;;;;5041782;28;20368;-91
2020/12/10 16:30:33;;;;;;;;;;;3.30;79.60;;;;;;5038510;28;19917;-92
2020/12/10 16:33:03;;;;;;;;;;;3.30;79.60;;;;;;5041546;28;19954;-91
2020/12/10 16:35:30;;;;;;;;;;;3.30;79.60;;;;;;5059147;28;19995;-93
2020/12/10 16:37:58;;;;;;;;;;;3.40;79.60;;;;;;5055519;28;19930;-92
2020/12/10 16:40:24;;;;;;;;;;;3.30;79.60;;;;;;5061409;28;19908;-90
2020/12/10 16:42:52;;;;;;;;;;;3.30;79.60;;;;;;5037034;28;19924;-92